Artois, California
Current Conditions -  °F | °C
As of 5:55 PM on Tuesday 21 Oct 2014 (Local Time) from KCIC Reporting Station
Broken Clouds Broken Clouds  
Wind Chill: 66°   Ceiling: 25000
Heat Index: 66°   Visibility: 80mi
Dew Point: 37°   Wind: 12mph
Humidity: 35%   Direction: 310°NW
Pressure: 30"   Gusts: NA
Location:  39.62°N, 122.2°W
Report Text: KCIC 220055Z 31010KT 80SM BKN250 19/03 A3000
Loading
Personal Weather Stations






























Interactive Weather Map
Tropical Storm Tracking
New forecast layout! Learn more

10-Day Weather Forecast

Advertisements
Track Severe Weather on mobile